createdAt,value
2018-12-03T00:00:27.296Z,12.10
2018-12-03T00:03:01.784Z,12.10
2018-12-03T00:05:30.311Z,12.10
2018-12-03T00:07:58.801Z,12.10
2018-12-03T00:10:27.311Z,12.10
2018-12-03T00:12:55.763Z,12.10
2018-12-03T00:15:24.311Z,12.10
2018-12-03T00:17:52.804Z,12.10
2018-12-03T00:20:21.327Z,12.10
2018-12-03T00:22:49.815Z,12.00
2018-12-03T00:25:18.339Z,12.00
2018-12-03T00:27:51.889Z,12.10
2018-12-03T00:30:21.086Z,12.10
2018-12-03T00:32:49.963Z,12.10
2018-12-03T00:35:18.471Z,12.10
2018-12-03T00:37:46.963Z,12.10
2018-12-03T00:40:15.467Z,12.10
2018-12-03T00:42:43.965Z,12.10
2018-12-03T00:45:12.506Z,12.10
2018-12-03T00:47:40.966Z,12.10
2018-12-03T00:50:09.502Z,12.10
2018-12-03T00:52:37.959Z,12.10
2018-12-03T00:55:07.764Z,12.10
2018-12-03T00:57:36.238Z,12.00
2018-12-03T01:00:07.407Z,12.00
2018-12-03T01:02:35.867Z,11.90
2018-12-03T01:05:04.802Z,11.90
2018-12-03T01:07:33.343Z,11.80
2018-12-03T01:10:01.812Z,11.80
2018-12-03T01:12:30.288Z,11.80
2018-12-03T01:14:58.747Z,11.80
2018-12-03T01:17:27.235Z,11.70
2018-12-03T01:19:55.682Z,11.80
2018-12-03T01:22:24.163Z,11.80
2018-12-03T01:24:52.613Z,11.70
2018-12-03T01:27:21.100Z,11.70
2018-12-03T01:29:49.556Z,11.70
2018-12-03T01:32:18.039Z,11.70
2018-12-03T01:34:46.495Z,11.70
2018-12-03T01:37:14.990Z,11.70
2018-12-03T01:39:43.450Z,11.70
2018-12-03T01:42:11.928Z,11.70
2018-12-03T01:44:40.405Z,11.70
2018-12-03T01:47:08.879Z,11.70
2018-12-03T01:49:37.361Z,11.70
2018-12-03T01:52:06.014Z,11.70
2018-12-03T01:54:34.494Z,11.70
2018-12-03T01:57:02.948Z,11.70
2018-12-03T01:59:31.430Z,11.60
2018-12-03T02:01:59.867Z,11.70
2018-12-03T02:04:28.353Z,11.60
2018-12-03T02:06:56.815Z,11.70
2018-12-03T02:09:25.304Z,11.70
2018-12-03T02:11:53.747Z,11.60
2018-12-03T02:14:22.230Z,11.60
2018-12-03T02:16:50.711Z,11.60
2018-12-03T02:19:19.195Z,11.60
2018-12-03T02:21:47.644Z,11.60
2018-12-03T02:24:16.148Z,11.60
2018-12-03T02:26:44.639Z,11.60
2018-12-03T02:29:13.125Z,11.60
2018-12-03T02:31:41.588Z,11.60
2018-12-03T02:34:10.044Z,11.50
2018-12-03T02:36:38.528Z,11.50
2018-12-03T02:39:08.643Z,11.50
2018-12-03T02:41:37.461Z,11.50
2018-12-03T02:44:06.103Z,11.50
2018-12-03T02:46:34.588Z,11.50
2018-12-03T02:49:03.040Z,11.40
2018-12-03T02:51:31.534Z,11.40
2018-12-03T02:54:00.009Z,11.40
2018-12-03T02:56:28.510Z,11.40
2018-12-03T02:58:56.961Z,11.40
2018-12-03T03:01:25.487Z,11.40
2018-12-03T03:03:53.962Z,11.40
2018-12-03T03:06:22.467Z,11.40
2018-12-03T03:08:50.941Z,11.30
2018-12-03T03:11:19.447Z,11.30
2018-12-03T03:13:47.939Z,11.30
2018-12-03T03:16:16.443Z,11.30
2018-12-03T03:18:44.918Z,11.30
2018-12-03T03:21:13.429Z,11.30
2018-12-03T03:23:41.883Z,11.30
2018-12-03T03:26:10.375Z,11.30
2018-12-03T03:28:38.849Z,11.30
2018-12-03T03:31:07.348Z,11.30
2018-12-03T03:33:35.833Z,11.30
2018-12-03T03:36:04.387Z,11.30
2018-12-03T03:38:32.848Z,11.30
2018-12-03T03:41:01.452Z,11.30
2018-12-03T03:43:29.942Z,11.30
2018-12-03T03:45:58.459Z,11.30
2018-12-03T03:48:26.989Z,11.30
2018-12-03T03:50:55.601Z,11.30
2018-12-03T03:53:24.124Z,11.30
2018-12-03T03:55:52.940Z,11.30
2018-12-03T03:58:21.472Z,11.30
2018-12-03T04:00:50.016Z,11.30
2018-12-03T04:03:18.524Z,11.30
2018-12-03T04:05:47.084Z,11.30
2018-12-03T04:08:15.628Z,11.30
2018-12-03T04:10:44.296Z,11.30
2018-12-03T04:13:12.842Z,11.30
2018-12-03T04:15:41.384Z,11.30
2018-12-03T04:18:09.929Z,11.30
2018-12-03T04:20:38.478Z,11.30
2018-12-03T04:23:07.036Z,11.40
2018-12-03T04:25:35.564Z,11.40
2018-12-03T04:28:04.081Z,11.40
2018-12-03T04:30:32.621Z,11.40
2018-12-03T04:33:01.131Z,11.40
2018-12-03T04:35:29.673Z,11.40
2018-12-03T04:37:58.188Z,11.40
2018-12-03T04:40:26.739Z,11.40
2018-12-03T04:42:55.248Z,11.40
2018-12-03T04:45:23.816Z,11.40
2018-12-03T04:47:52.349Z,11.40
2018-12-03T04:50:21.874Z,11.40
2018-12-03T04:52:50.406Z,11.40
2018-12-03T04:55:19.860Z,11.40
2018-12-03T04:57:48.485Z,11.50
2018-12-03T05:00:18.346Z,11.50
2018-12-03T05:02:50.009Z,11.50
2018-12-03T05:05:18.572Z,11.60
2018-12-03T05:07:47.119Z,11.60
2018-12-03T05:10:16.658Z,11.70
2018-12-03T05:12:46.289Z,11.70
2018-12-03T05:15:14.996Z,11.70
2018-12-03T05:17:43.877Z,11.70
2018-12-03T05:20:13.756Z,11.80
2018-12-03T05:22:42.360Z,11.80
2018-12-03T05:25:11.132Z,11.90
2018-12-03T05:27:39.748Z,11.90
2018-12-03T05:30:10.589Z,11.90
2018-12-03T05:32:39.584Z,11.90
2018-12-03T05:35:09.652Z,11.90
2018-12-03T05:37:38.228Z,11.90
2018-12-03T05:40:16.300Z,11.90
2018-12-03T05:42:45.189Z,11.90
2018-12-03T05:45:13.724Z,11.90
2018-12-03T05:47:42.255Z,11.90
2018-12-03T05:50:12.236Z,11.80
2018-12-03T05:52:40.849Z,11.90
2018-12-03T05:55:10.679Z,11.80
2018-12-03T05:57:39.259Z,11.80
2018-12-03T06:00:14.279Z,11.80
2018-12-03T06:02:42.907Z,11.80
2018-12-03T06:05:12.484Z,11.80
2018-12-03T06:07:41.033Z,11.80
2018-12-03T06:10:11.048Z,11.80
2018-12-03T06:12:39.596Z,11.80
2018-12-03T06:15:09.664Z,11.80
2018-12-03T06:17:38.656Z,11.80
2018-12-03T06:20:10.827Z,11.70
2018-12-03T06:22:39.457Z,11.70
2018-12-03T06:25:10.630Z,11.70
2018-12-03T06:27:39.188Z,11.70
2018-12-03T06:30:12.327Z,11.70
2018-12-03T06:32:40.859Z,11.70
2018-12-03T06:35:11.021Z,11.60
2018-12-03T06:37:39.578Z,11.70
2018-12-03T06:40:15.706Z,11.60
2018-12-03T06:42:44.260Z,11.60
2018-12-03T06:45:16.904Z,11.60
2018-12-03T06:47:47.890Z,11.60
2018-12-03T06:50:16.419Z,11.60
2018-12-03T06:52:45.132Z,11.60
2018-12-03T06:55:13.629Z,11.50
2018-12-03T06:57:42.159Z,11.60
2018-12-03T07:00:12.624Z,11.50
2018-12-03T07:02:41.151Z,11.50
2018-12-03T07:05:10.696Z,11.50
2018-12-03T07:07:39.621Z,11.40
2018-12-03T07:10:13.179Z,11.40
2018-12-03T07:12:41.784Z,11.30
2018-12-03T07:15:11.976Z,11.30
2018-12-03T07:17:40.500Z,11.20
2018-12-03T07:20:11.325Z,11.20
2018-12-03T07:22:40.300Z,11.20
2018-12-03T07:25:10.175Z,11.20
2018-12-03T07:27:38.943Z,11.20
2018-12-03T07:30:16.835Z,11.10
2018-12-03T07:32:47.254Z,11.10
2018-12-03T07:35:15.321Z,11.10
2018-12-03T07:37:43.923Z,11.10
2018-12-03T07:40:12.933Z,11.10
2018-12-03T07:42:42.641Z,11.10
2018-12-03T07:45:13.664Z,11.10
2018-12-03T07:47:42.207Z,11.10
2018-12-03T07:50:12.871Z,11.10
2018-12-03T07:52:41.627Z,11.10
2018-12-03T07:55:11.531Z,11.10
2018-12-03T07:57:42.308Z,11.10
2018-12-03T08:00:13.880Z,11.00
2018-12-03T08:02:42.439Z,11.10
2018-12-03T08:05:11.538Z,11.10
2018-12-03T08:07:40.083Z,11.00
2018-12-03T08:10:12.983Z,11.10
2018-12-03T08:12:41.916Z,11.10
2018-12-03T08:15:13.556Z,11.10
2018-12-03T08:17:43.073Z,11.10
2018-12-03T08:20:17.396Z,11.10
2018-12-03T08:22:47.571Z,11.10
2018-12-03T08:25:16.375Z,11.10
2018-12-03T08:27:45.207Z,11.10
2018-12-03T08:30:14.023Z,11.20
2018-12-03T08:32:42.588Z,11.30
2018-12-03T08:35:14.000Z,11.60
2018-12-03T08:37:43.116Z,11.60
2018-12-03T08:40:13.650Z,11.80
2018-12-03T08:42:48.642Z,11.80
2018-12-03T08:45:17.447Z,12.30
2018-12-03T08:47:46.548Z,13.30
2018-12-03T08:50:16.972Z,13.60
2018-12-03T08:52:45.656Z,13.60
2018-12-03T08:55:14.212Z,13.30
2018-12-03T08:57:42.748Z,13.00
2018-12-03T09:00:13.890Z,12.70
2018-12-03T09:02:57.259Z,12.50
2018-12-03T09:05:27.412Z,12.40
2018-12-03T09:07:55.966Z,12.30
2018-12-03T09:10:25.448Z,12.20
2018-12-03T09:12:54.084Z,12.10
2018-12-03T09:15:22.701Z,12.00
2018-12-03T09:17:51.340Z,11.90
2018-12-03T09:20:19.892Z,11.80
2018-12-03T09:22:48.571Z,11.80
2018-12-03T09:25:22.699Z,11.80
2018-12-03T09:27:51.359Z,11.80
2018-12-03T09:30:20.024Z,11.80
2018-12-03T09:32:48.608Z,11.90
2018-12-03T09:35:17.130Z,11.90
2018-12-03T09:37:45.649Z,12.10
2018-12-03T09:40:17.656Z,12.20
2018-12-03T09:42:46.185Z,12.30
2018-12-03T09:45:16.971Z,12.40
2018-12-03T09:47:46.032Z,12.40
2018-12-03T09:50:18.741Z,12.40
2018-12-03T09:52:47.321Z,12.40
2018-12-03T09:55:25.805Z,12.40
2018-12-03T09:58:05.853Z,12.50
2018-12-03T10:00:34.425Z,12.60
2018-12-03T10:03:05.380Z,12.70
2018-12-03T10:05:37.664Z,12.80
2018-12-03T10:08:06.220Z,12.80
2018-12-03T10:10:34.756Z,12.80
2018-12-03T10:13:06.202Z,12.80
2018-12-03T10:15:34.767Z,12.80
2018-12-03T10:18:03.528Z,12.80
2018-12-03T10:20:32.148Z,12.90
2018-12-03T10:23:00.652Z,12.90
2018-12-03T10:25:29.224Z,12.90
2018-12-03T10:28:00.842Z,12.90
2018-12-03T10:31:10.796Z,12.90
2018-12-03T10:33:38.285Z,12.90
2018-12-03T10:36:06.013Z,12.90
2018-12-03T10:38:33.503Z,12.90
2018-12-03T10:41:01.024Z,12.80
2018-12-03T10:43:28.516Z,12.80
2018-12-03T10:45:56.039Z,12.80
2018-12-03T10:48:23.523Z,12.80
2018-12-03T10:50:51.130Z,12.80
2018-12-03T10:53:22.381Z,12.80
2018-12-03T10:55:49.900Z,12.80
2018-12-03T10:58:17.392Z,12.80
2018-12-03T11:00:50.688Z,12.80
2018-12-03T11:03:20.165Z,12.80
2018-12-03T11:05:53.468Z,12.80
2018-12-03T11:08:21.047Z,12.80
2018-12-03T11:10:48.652Z,12.80
2018-12-03T11:13:16.144Z,12.90
2018-12-03T11:15:43.755Z,12.90
2018-12-03T11:18:11.418Z,12.90
2018-12-03T11:20:39.108Z,12.80
2018-12-03T11:23:06.592Z,12.80
2018-12-03T11:25:34.127Z,12.70
2018-12-03T11:28:01.801Z,12.70
2018-12-03T11:30:29.320Z,12.70
2018-12-03T11:32:56.816Z,12.70
2018-12-03T11:35:24.426Z,12.70
2018-12-03T11:37:51.916Z,12.80
2018-12-03T11:40:21.423Z,12.90
2018-12-03T11:42:48.908Z,12.90
2018-12-03T11:45:16.402Z,12.90
2018-12-03T11:47:43.917Z,12.80
2018-12-03T11:50:11.488Z,12.80
2018-12-03T11:52:39.007Z,12.80
2018-12-03T11:55:06.575Z,12.70
2018-12-03T11:57:34.094Z,12.70
2018-12-03T12:00:01.584Z,12.70
2018-12-03T12:02:29.103Z,12.70
2018-12-03T12:04:56.592Z,12.70
2018-12-03T12:07:24.112Z,12.70
2018-12-03T12:09:51.599Z,12.70
2018-12-03T12:12:19.121Z,12.60
2018-12-03T12:14:46.612Z,12.60
2018-12-03T12:17:14.130Z,12.60
2018-12-03T12:19:41.615Z,12.70
2018-12-03T12:22:09.137Z,12.70
2018-12-03T12:24:36.624Z,12.80
2018-12-03T12:27:05.392Z,12.80
2018-12-03T12:29:32.884Z,12.80
2018-12-03T12:32:00.406Z,12.70
2018-12-03T12:34:27.896Z,12.80
2018-12-03T12:36:55.414Z,12.70
2018-12-03T12:39:22.904Z,12.70
2018-12-03T12:41:50.420Z,12.60
2018-12-03T12:44:17.911Z,12.60
2018-12-03T12:46:45.432Z,12.60
2018-12-03T12:49:12.928Z,12.60
2018-12-03T12:51:40.532Z,12.50
2018-12-03T12:54:08.031Z,12.40
2018-12-03T12:56:35.551Z,12.40
2018-12-03T12:59:03.129Z,12.40
2018-12-03T13:01:30.647Z,12.30
2018-12-03T13:03:58.140Z,12.30
2018-12-03T13:06:25.664Z,12.20
2018-12-03T13:08:53.164Z,12.10
2018-12-03T13:11:20.684Z,12.10
2018-12-03T13:13:48.168Z,12.00
2018-12-03T13:16:15.684Z,11.90
2018-12-03T13:18:43.183Z,11.90
2018-12-03T13:21:10.699Z,11.90
2018-12-03T13:23:38.239Z,11.80
2018-12-03T13:26:05.992Z,11.80
2018-12-03T13:28:33.480Z,11.80
2018-12-03T13:31:01.008Z,11.70
2018-12-03T13:33:28.513Z,11.70
2018-12-03T13:35:56.003Z,11.60
2018-12-03T13:38:23.523Z,11.50
2018-12-03T13:40:51.016Z,11.30
2018-12-03T13:43:18.537Z,11.20
2018-12-03T13:45:46.112Z,11.10
2018-12-03T13:48:13.632Z,11.00
2018-12-03T13:50:41.116Z,10.90
2018-12-03T13:53:08.641Z,10.90
2018-12-03T13:55:36.127Z,10.90
2018-12-03T13:58:03.732Z,10.80
2018-12-03T14:00:31.393Z,10.80
2018-12-03T14:02:58.917Z,10.70
2018-12-03T14:05:26.492Z,10.70
2018-12-03T14:07:54.016Z,10.70
2018-12-03T14:10:21.499Z,10.60
2018-12-03T14:12:49.208Z,10.60
2018-12-03T14:15:19.976Z,10.60
2018-12-03T14:17:47.495Z,10.60
2018-12-03T14:20:14.989Z,10.50
2018-12-03T14:22:42.991Z,10.50
2018-12-03T14:25:10.480Z,10.50
2018-12-03T14:27:38.000Z,10.50
2018-12-03T14:30:06.956Z,10.50
2018-12-03T14:32:34.467Z,10.40
2018-12-03T14:35:01.956Z,10.40
2018-12-03T14:37:29.475Z,10.40
2018-12-03T14:39:56.962Z,10.30
2018-12-03T14:42:24.572Z,10.30
2018-12-03T14:44:52.057Z,10.30
2018-12-03T14:47:19.577Z,10.20
2018-12-03T14:49:47.070Z,10.20
2018-12-03T14:52:14.588Z,10.20
2018-12-03T14:54:42.071Z,10.20
2018-12-03T14:57:09.588Z,10.20
2018-12-03T14:59:37.082Z,10.30
2018-12-03T15:02:04.688Z,10.30
2018-12-03T15:04:32.176Z,10.20
2018-12-03T15:06:59.752Z,10.20
2018-12-03T15:09:27.272Z,10.20
2018-12-03T15:11:54.770Z,10.20
2018-12-03T15:14:22.291Z,10.20
2018-12-03T15:16:49.785Z,10.30
2018-12-03T15:19:17.395Z,10.30
2018-12-03T15:21:44.888Z,10.30
2018-12-03T15:24:13.498Z,10.30
2018-12-03T15:26:41.281Z,10.30
2018-12-03T15:29:08.967Z,10.30
2018-12-03T15:31:36.464Z,10.30
2018-12-03T15:34:04.079Z,10.30
2018-12-03T15:36:31.571Z,10.30
2018-12-03T15:38:59.094Z,10.30
2018-12-03T15:41:26.580Z,10.30
2018-12-03T15:43:54.104Z,10.30
2018-12-03T15:46:21.591Z,10.30
2018-12-03T15:48:49.112Z,10.40
2018-12-03T15:51:16.609Z,10.40
2018-12-03T15:53:44.127Z,10.40
2018-12-03T15:56:11.619Z,10.40
2018-12-03T15:58:39.140Z,10.30
2018-12-03T16:01:06.627Z,10.30
2018-12-03T16:03:34.153Z,10.30
2018-12-03T16:06:01.656Z,10.30
2018-12-03T16:08:29.171Z,10.30
2018-12-03T16:10:56.664Z,10.30
2018-12-03T16:13:24.184Z,10.30
2018-12-03T16:15:51.679Z,10.30
2018-12-03T16:18:19.208Z,10.30
2018-12-03T16:20:46.696Z,10.30
2018-12-03T16:23:14.193Z,10.30
2018-12-03T16:25:41.720Z,10.30
2018-12-03T16:28:09.212Z,10.20
2018-12-03T16:30:36.815Z,10.10
2018-12-03T16:33:04.308Z,10.10
2018-12-03T16:35:31.832Z,10.10
2018-12-03T16:37:59.325Z,10.00
2018-12-03T16:40:26.849Z,10.00
2018-12-03T16:42:54.344Z,10.00
2018-12-03T16:45:21.947Z,9.90
2018-12-03T16:47:49.444Z,10.00
2018-12-03T16:50:16.972Z,10.00
2018-12-03T16:52:44.460Z,9.90
2018-12-03T16:55:11.975Z,9.90
2018-12-03T16:57:39.468Z,9.90
2018-12-03T17:00:08.858Z,9.90
2018-12-03T17:02:36.347Z,9.90
2018-12-03T17:05:04.736Z,9.90
2018-12-03T17:07:32.224Z,9.90
2018-12-03T17:09:59.748Z,9.90
2018-12-03T17:12:27.235Z,9.90
2018-12-03T17:14:54.725Z,9.90
2018-12-03T17:17:22.252Z,9.90
2018-12-03T17:19:49.826Z,9.90
2018-12-03T17:22:17.442Z,9.90
2018-12-03T17:24:44.932Z,9.90
2018-12-03T17:27:12.456Z,10.00
2018-12-03T17:29:39.947Z,10.00
2018-12-03T17:32:07.468Z,10.00
2018-12-03T17:34:34.972Z,10.00
2018-12-03T17:37:02.496Z,10.00
2018-12-03T17:39:29.988Z,10.10
2018-12-03T17:41:57.508Z,10.10
2018-12-03T17:44:25.007Z,10.10
2018-12-03T17:46:52.532Z,10.10
2018-12-03T17:49:20.023Z,10.10
2018-12-03T17:51:47.511Z,10.10
2018-12-03T17:54:15.038Z,10.10
2018-12-03T17:56:42.527Z,10.10
2018-12-03T17:59:10.053Z,10.10
2018-12-03T18:01:37.560Z,10.10
2018-12-03T18:04:05.096Z,10.10
2018-12-03T18:06:32.604Z,10.10
2018-12-03T18:09:00.136Z,10.10
2018-12-03T18:11:27.635Z,10.10
2018-12-03T18:13:55.260Z,10.10
2018-12-03T18:16:22.752Z,10.10
2018-12-03T18:18:50.284Z,10.10
2018-12-03T18:21:17.781Z,10.00
2018-12-03T18:23:45.316Z,10.00
2018-12-03T18:26:12.815Z,10.00
2018-12-03T18:28:40.317Z,10.00
2018-12-03T18:31:07.836Z,10.00
2018-12-03T18:33:35.323Z,10.00
2018-12-03T18:36:02.847Z,10.00
2018-12-03T18:38:30.340Z,10.00
2018-12-03T18:41:03.166Z,10.00
2018-12-03T18:43:27.375Z,10.00
2018-12-03T18:45:54.908Z,10.00
2018-12-03T18:48:22.400Z,10.00
2018-12-03T18:50:50.012Z,10.00
2018-12-03T18:53:17.519Z,10.00
2018-12-03T18:55:45.042Z,10.00
2018-12-03T18:58:12.825Z,10.00
2018-12-03T19:00:40.351Z,10.00
2018-12-03T19:03:07.847Z,10.00
2018-12-03T19:05:35.376Z,10.00
2018-12-03T19:08:02.871Z,10.00
2018-12-03T19:10:30.399Z,10.00
2018-12-03T19:12:57.898Z,10.00
2018-12-03T19:15:25.423Z,10.00
2018-12-03T19:17:52.920Z,10.00
2018-12-03T19:20:20.447Z,10.00
2018-12-03T19:22:47.947Z,10.10
2018-12-03T19:25:15.471Z,10.10
2018-12-03T19:27:42.972Z,10.10
2018-12-03T19:30:10.584Z,10.10
2018-12-03T19:32:38.079Z,10.10
2018-12-03T19:35:05.875Z,10.10
2018-12-03T19:37:33.565Z,10.10
2018-12-03T19:40:01.108Z,10.10
2018-12-03T19:42:28.636Z,10.10
2018-12-03T19:44:56.132Z,10.10
2018-12-03T19:47:24.450Z,10.10
2018-12-03T19:49:52.182Z,10.10
2018-12-03T19:52:19.724Z,10.10
2018-12-03T19:54:47.303Z,10.10
2018-12-03T19:57:15.066Z,10.10
2018-12-03T19:59:42.852Z,10.10
2018-12-03T20:02:10.382Z,10.10
2018-12-03T20:04:43.703Z,10.10
2018-12-03T20:07:11.219Z,10.10
2018-12-03T20:09:39.111Z,10.10
2018-12-03T20:12:06.978Z,10.10
2018-12-03T20:14:34.499Z,10.10
2018-12-03T20:17:02.101Z,10.10
2018-12-03T20:19:29.588Z,10.10
2018-12-03T20:21:58.036Z,10.20
2018-12-03T20:24:26.724Z,10.10
2018-12-03T20:26:55.973Z,10.20
2018-12-03T20:29:24.607Z,10.20
2018-12-03T20:31:57.900Z,10.20
2018-12-03T20:34:25.824Z,10.10
2018-12-03T20:36:55.813Z,10.20
2018-12-03T20:39:28.080Z,10.20
2018-12-03T20:41:56.261Z,10.10
2018-12-03T20:44:24.403Z,10.20
2018-12-03T20:46:53.270Z,10.20
2018-12-03T20:49:21.130Z,10.20
2018-12-03T20:51:48.707Z,10.20
2018-12-03T20:54:16.235Z,10.20
2018-12-03T20:56:43.728Z,10.20
2018-12-03T20:59:11.251Z,10.20
2018-12-03T21:01:38.912Z,10.20
2018-12-03T21:04:06.524Z,10.20
2018-12-03T21:06:34.020Z,10.20
2018-12-03T21:09:01.540Z,10.20
2018-12-03T21:11:29.036Z,10.20
2018-12-03T21:13:56.560Z,10.30
2018-12-03T21:16:24.142Z,10.20
2018-12-03T21:18:51.663Z,10.20
2018-12-03T21:21:19.151Z,10.20
2018-12-03T21:23:46.667Z,10.20
2018-12-03T21:26:14.155Z,10.20
2018-12-03T21:28:41.672Z,10.20
2018-12-03T21:31:09.176Z,10.10
2018-12-03T21:33:36.668Z,10.10
2018-12-03T21:36:04.190Z,10.10
2018-12-03T21:38:31.691Z,10.10
2018-12-03T21:40:59.212Z,10.10
2018-12-03T21:43:26.708Z,10.10
2018-12-03T21:45:54.231Z,10.10
2018-12-03T21:48:21.723Z,10.00
2018-12-03T21:50:49.248Z,10.00
2018-12-03T21:53:16.739Z,10.00
2018-12-03T21:55:44.263Z,10.10
2018-12-03T21:58:11.760Z,10.00
2018-12-03T22:00:39.288Z,10.00
2018-12-03T22:03:06.779Z,10.00
2018-12-03T22:05:34.300Z,10.00
2018-12-03T22:08:01.796Z,10.00
2018-12-03T22:10:29.338Z,10.00
2018-12-03T22:12:56.925Z,10.00
2018-12-03T22:15:24.452Z,10.00
2018-12-03T22:17:51.948Z,10.00
2018-12-03T22:20:19.471Z,10.00
2018-12-03T22:22:46.964Z,10.00
2018-12-03T22:25:14.504Z,10.00
2018-12-03T22:27:41.996Z,10.00
2018-12-03T22:30:09.483Z,10.00
2018-12-03T22:32:37.008Z,10.10
2018-12-03T22:35:04.868Z,10.10
2018-12-03T22:37:32.384Z,10.10
2018-12-03T22:39:59.876Z,10.10
2018-12-03T22:42:27.396Z,10.10
2018-12-03T22:44:54.889Z,10.10
2018-12-03T22:47:22.414Z,10.10
2018-12-03T22:49:49.909Z,10.20
2018-12-03T22:52:17.430Z,10.20
2018-12-03T22:54:44.939Z,10.20
2018-12-03T22:57:12.455Z,10.20
2018-12-03T22:59:39.951Z,10.20
2018-12-03T23:02:07.471Z,10.20
2018-12-03T23:04:36.944Z,10.20
2018-12-03T23:07:04.464Z,10.20
2018-12-03T23:09:32.048Z,10.20
2018-12-03T23:11:59.572Z,10.20
2018-12-03T23:14:27.063Z,10.20
2018-12-03T23:16:54.580Z,10.20
2018-12-03T23:19:22.072Z,10.20
2018-12-03T23:21:49.561Z,10.20
2018-12-03T23:24:17.075Z,10.10
2018-12-03T23:26:44.572Z,10.10
2018-12-03T23:29:12.089Z,10.20
2018-12-03T23:31:39.588Z,10.30
2018-12-03T23:34:07.108Z,10.30
2018-12-03T23:36:34.604Z,10.30
2018-12-03T23:39:02.124Z,10.30
2018-12-03T23:41:29.616Z,10.30
2018-12-03T23:43:57.223Z,10.30
2018-12-03T23:46:25.302Z,10.40
2018-12-03T23:48:52.824Z,10.30
2018-12-03T23:51:20.320Z,10.20
2018-12-03T23:53:47.844Z,10.20
2018-12-03T23:56:15.419Z,10.20
2018-12-03T23:58:42.949Z,10.10
